sensor_id;sensor_type;location;lat;lon;timestamp;P1;durP1;ratioP1;P2;durP2;ratioP2
35803;SDS011;21924;51.934;7.414;2022-07-15T00:00:20;13.00;;;2.75;;
35803;SDS011;21924;51.934;7.414;2022-07-15T00:03:05;8.77;;;2.38;;
35803;SDS011;21924;51.934;7.414;2022-07-15T00:05:49;7.63;;;2.53;;
35803;SDS011;21924;51.934;7.414;2022-07-15T00:08:34;6.47;;;2.47;;
35803;SDS011;21924;51.934;7.414;2022-07-15T00:11:19;8.40;;;2.05;;
35803;SDS011;21924;51.934;7.414;2022-07-15T00:14:03;3.85;;;2.08;;
35803;SDS011;21924;51.934;7.414;2022-07-15T00:16:48;3.63;;;2.25;;
35803;SDS011;21924;51.934;7.414;2022-07-15T00:19:33;7.40;;;2.60;;
35803;SDS011;21924;51.934;7.414;2022-07-15T00:22:18;7.37;;;2.70;;
35803;SDS011;21924;51.934;7.414;2022-07-15T00:25:02;5.57;;;2.50;;
35803;SDS011;21924;51.934;7.414;2022-07-15T00:27:54;5.60;;;2.47;;
35803;SDS011;21924;51.934;7.414;2022-07-15T00:30:50;11.27;;;2.10;;
35803;SDS011;21924;51.934;7.414;2022-07-15T00:33:34;10.25;;;2.58;;
35803;SDS011;21924;51.934;7.414;2022-07-15T00:36:19;6.22;;;2.75;;
35803;SDS011;21924;51.934;7.414;2022-07-15T00:39:03;10.15;;;3.60;;
35803;SDS011;21924;51.934;7.414;2022-07-15T00:41:48;5.93;;;2.30;;
35803;SDS011;21924;51.934;7.414;2022-07-15T00:44:32;8.57;;;2.60;;
35803;SDS011;21924;51.934;7.414;2022-07-15T00:47:16;7.93;;;2.75;;
35803;SDS011;21924;51.934;7.414;2022-07-15T00:50:01;14.52;;;3.17;;
35803;SDS011;21924;51.934;7.414;2022-07-15T00:52:47;5.03;;;2.67;;
35803;SDS011;21924;51.934;7.414;2022-07-15T00:55:37;6.03;;;2.42;;
35803;SDS011;21924;51.934;7.414;2022-07-15T00:58:26;7.28;;;2.30;;
35803;SDS011;21924;51.934;7.414;2022-07-15T01:01:12;7.32;;;2.35;;
35803;SDS011;21924;51.934;7.414;2022-07-15T01:04:03;10.57;;;2.75;;
35803;SDS011;21924;51.934;7.414;2022-07-15T01:09:33;9.73;;;2.33;;
35803;SDS011;21924;51.934;7.414;2022-07-15T01:12:17;17.10;;;2.53;;
35803;SDS011;21924;51.934;7.414;2022-07-15T01:15:02;13.02;;;2.58;;
35803;SDS011;21924;51.934;7.414;2022-07-15T01:17:48;5.75;;;2.30;;
35803;SDS011;21924;51.934;7.414;2022-07-15T01:20:32;4.22;;;2.17;;
35803;SDS011;21924;51.934;7.414;2022-07-15T01:23:16;4.00;;;2.08;;
35803;SDS011;21924;51.934;7.414;2022-07-15T01:26:01;8.15;;;3.88;;
35803;SDS011;21924;51.934;7.414;2022-07-15T01:28:46;13.30;;;3.22;;
35803;SDS011;21924;51.934;7.414;2022-07-15T01:31:30;6.35;;;2.38;;
35803;SDS011;21924;51.934;7.414;2022-07-15T01:34:15;13.10;;;3.10;;
35803;SDS011;21924;51.934;7.414;2022-07-15T01:36:59;7.32;;;2.30;;
35803;SDS011;21924;51.934;7.414;2022-07-15T01:39:44;10.82;;;3.28;;
35803;SDS011;21924;51.934;7.414;2022-07-15T01:42:29;3.95;;;2.50;;
35803;SDS011;21924;51.934;7.414;2022-07-15T01:45:14;6.07;;;2.35;;
35803;SDS011;21924;51.934;7.414;2022-07-15T01:47:59;10.10;;;2.92;;
35803;SDS011;21924;51.934;7.414;2022-07-15T01:50:43;9.02;;;3.08;;
35803;SDS011;21924;51.934;7.414;2022-07-15T01:53:28;9.05;;;2.90;;
35803;SDS011;21924;51.934;7.414;2022-07-15T01:56:12;7.68;;;3.20;;
35803;SDS011;21924;51.934;7.414;2022-07-15T01:58:56;9.32;;;3.10;;
35803;SDS011;21924;51.934;7.414;2022-07-15T02:01:41;6.50;;;3.15;;
35803;SDS011;21924;51.934;7.414;2022-07-15T02:04:26;6.25;;;3.20;;
35803;SDS011;21924;51.934;7.414;2022-07-15T02:07:11;7.38;;;2.90;;
35803;SDS011;21924;51.934;7.414;2022-07-15T02:09:56;12.90;;;3.38;;
35803;SDS011;21924;51.934;7.414;2022-07-15T02:12:40;16.67;;;3.45;;
35803;SDS011;21924;51.934;7.414;2022-07-15T02:15:25;12.18;;;3.00;;
35803;SDS011;21924;51.934;7.414;2022-07-15T02:18:09;10.10;;;2.80;;
35803;SDS011;21924;51.934;7.414;2022-07-15T02:20:54;13.02;;;3.00;;
35803;SDS011;21924;51.934;7.414;2022-07-15T02:23:38;14.57;;;2.97;;
35803;SDS011;21924;51.934;7.414;2022-07-15T02:26:23;6.25;;;2.72;;
35803;SDS011;21924;51.934;7.414;2022-07-15T02:29:07;6.32;;;3.00;;
35803;SDS011;21924;51.934;7.414;2022-07-15T02:31:51;7.05;;;2.60;;
35803;SDS011;21924;51.934;7.414;2022-07-15T02:34:35;8.38;;;2.83;;
35803;SDS011;21924;51.934;7.414;2022-07-15T02:37:19;10.55;;;2.78;;
35803;SDS011;21924;51.934;7.414;2022-07-15T02:40:04;6.53;;;3.13;;
35803;SDS011;21924;51.934;7.414;2022-07-15T02:42:49;8.05;;;2.80;;
35803;SDS011;21924;51.934;7.414;2022-07-15T02:45:36;13.55;;;2.70;;
35803;SDS011;21924;51.934;7.414;2022-07-15T02:48:21;5.72;;;2.83;;
35803;SDS011;21924;51.934;7.414;2022-07-15T02:51:05;10.38;;;3.00;;
35803;SDS011;21924;51.934;7.414;2022-07-15T02:53:50;9.98;;;2.88;;
35803;SDS011;21924;51.934;7.414;2022-07-15T02:56:34;7.05;;;2.83;;
35803;SDS011;21924;51.934;7.414;2022-07-15T02:59:19;8.90;;;3.00;;
35803;SDS011;21924;51.934;7.414;2022-07-15T03:02:03;9.38;;;2.92;;
35803;SDS011;21924;51.934;7.414;2022-07-15T03:04:48;8.35;;;3.25;;
35803;SDS011;21924;51.934;7.414;2022-07-15T03:07:32;10.60;;;3.03;;
35803;SDS011;21924;51.934;7.414;2022-07-15T03:10:17;5.95;;;2.50;;
35803;SDS011;21924;51.934;7.414;2022-07-15T03:13:02;10.63;;;3.05;;
35803;SDS011;21924;51.934;7.414;2022-07-15T03:15:47;5.65;;;2.70;;
35803;SDS011;21924;51.934;7.414;2022-07-15T03:18:31;8.25;;;2.67;;
35803;SDS011;21924;51.934;7.414;2022-07-15T03:21:16;6.78;;;3.58;;
35803;SDS011;21924;51.934;7.414;2022-07-15T03:24:00;9.30;;;3.03;;
35803;SDS011;21924;51.934;7.414;2022-07-15T03:26:44;7.38;;;3.15;;
35803;SDS011;21924;51.934;7.414;2022-07-15T03:29:29;7.20;;;3.85;;
35803;SDS011;21924;51.934;7.414;2022-07-15T03:32:13;11.93;;;3.28;;
35803;SDS011;21924;51.934;7.414;2022-07-15T03:35:00;12.18;;;3.08;;
35803;SDS011;21924;51.934;7.414;2022-07-15T03:37:44;9.77;;;3.50;;
35803;SDS011;21924;51.934;7.414;2022-07-15T03:40:29;6.93;;;3.35;;
35803;SDS011;21924;51.934;7.414;2022-07-15T03:43:14;5.28;;;2.95;;
35803;SDS011;21924;51.934;7.414;2022-07-15T03:45:59;19.57;;;3.40;;
35803;SDS011;21924;51.934;7.414;2022-07-15T03:48:43;9.88;;;3.63;;
35803;SDS011;21924;51.934;7.414;2022-07-15T03:51:29;7.85;;;3.42;;
35803;SDS011;21924;51.934;7.414;2022-07-15T03:54:14;13.18;;;3.67;;
35803;SDS011;21924;51.934;7.414;2022-07-15T03:56:59;10.50;;;3.58;;
35803;SDS011;21924;51.934;7.414;2022-07-15T03:59:43;14.95;;;3.58;;
35803;SDS011;21924;51.934;7.414;2022-07-15T04:02:28;11.38;;;3.50;;
35803;SDS011;21924;51.934;7.414;2022-07-15T04:05:14;7.13;;;2.90;;
35803;SDS011;21924;51.934;7.414;2022-07-15T04:07:58;10.18;;;3.28;;
35803;SDS011;21924;51.934;7.414;2022-07-15T04:10:43;14.55;;;3.60;;
35803;SDS011;21924;51.934;7.414;2022-07-15T04:13:27;9.00;;;2.90;;
35803;SDS011;21924;51.934;7.414;2022-07-15T04:16:11;13.77;;;3.95;;
35803;SDS011;21924;51.934;7.414;2022-07-15T04:18:56;7.38;;;3.00;;
35803;SDS011;21924;51.934;7.414;2022-07-15T04:21:40;7.30;;;2.78;;
35803;SDS011;21924;51.934;7.414;2022-07-15T04:24:25;7.65;;;2.88;;
35803;SDS011;21924;51.934;7.414;2022-07-15T04:27:09;8.13;;;3.22;;
35803;SDS011;21924;51.934;7.414;2022-07-15T04:29:54;5.47;;;3.33;;
35803;SDS011;21924;51.934;7.414;2022-07-15T04:32:38;5.53;;;3.63;;
35803;SDS011;21924;51.934;7.414;2022-07-15T04:35:23;7.38;;;2.63;;
35803;SDS011;21924;51.934;7.414;2022-07-15T04:38:07;11.98;;;2.83;;
35803;SDS011;21924;51.934;7.414;2022-07-15T04:40:52;8.85;;;2.65;;
35803;SDS011;21924;51.934;7.414;2022-07-15T04:43:38;5.30;;;2.50;;
35803;SDS011;21924;51.934;7.414;2022-07-15T04:46:23;14.10;;;2.72;;
35803;SDS011;21924;51.934;7.414;2022-07-15T04:49:08;9.27;;;2.50;;
35803;SDS011;21924;51.934;7.414;2022-07-15T04:52:11;9.13;;;2.50;;
35803;SDS011;21924;51.934;7.414;2022-07-15T04:54:55;7.53;;;2.22;;
35803;SDS011;21924;51.934;7.414;2022-07-15T04:57:39;5.55;;;2.50;;
35803;SDS011;21924;51.934;7.414;2022-07-15T05:00:25;8.07;;;2.60;;
35803;SDS011;21924;51.934;7.414;2022-07-15T05:03:09;3.88;;;2.35;;
35803;SDS011;21924;51.934;7.414;2022-07-15T05:05:54;10.10;;;2.90;;
35803;SDS011;21924;51.934;7.414;2022-07-15T05:08:39;9.82;;;2.42;;
35803;SDS011;21924;51.934;7.414;2022-07-15T05:11:23;9.90;;;2.78;;
35803;SDS011;21924;51.934;7.414;2022-07-15T05:14:08;11.02;;;3.05;;
35803;SDS011;21924;51.934;7.414;2022-07-15T05:16:53;10.43;;;2.92;;
35803;SDS011;21924;51.934;7.414;2022-07-15T05:19:39;12.15;;;2.78;;
35803;SDS011;21924;51.934;7.414;2022-07-15T05:22:23;5.63;;;2.53;;
35803;SDS011;21924;51.934;7.414;2022-07-15T05:25:09;16.77;;;3.60;;
35803;SDS011;21924;51.934;7.414;2022-07-15T05:27:53;12.88;;;3.35;;
35803;SDS011;21924;51.934;7.414;2022-07-15T05:30:37;13.85;;;2.67;;
35803;SDS011;21924;51.934;7.414;2022-07-15T05:33:22;10.23;;;2.35;;
35803;SDS011;21924;51.934;7.414;2022-07-15T05:36:10;10.07;;;2.83;;
35803;SDS011;21924;51.934;7.414;2022-07-15T05:38:59;8.48;;;2.45;;
35803;SDS011;21924;51.934;7.414;2022-07-15T05:41:43;4.32;;;2.38;;
35803;SDS011;21924;51.934;7.414;2022-07-15T05:44:28;7.63;;;2.72;;
35803;SDS011;21924;51.934;7.414;2022-07-15T05:47:12;8.90;;;2.53;;
35803;SDS011;21924;51.934;7.414;2022-07-15T05:49:56;9.02;;;2.25;;
35803;SDS011;21924;51.934;7.414;2022-07-15T05:52:40;9.48;;;2.40;;
35803;SDS011;21924;51.934;7.414;2022-07-15T05:55:25;8.48;;;2.53;;
35803;SDS011;21924;51.934;7.414;2022-07-15T05:58:09;10.70;;;2.15;;
35803;SDS011;21924;51.934;7.414;2022-07-15T06:00:54;10.68;;;2.15;;
35803;SDS011;21924;51.934;7.414;2022-07-15T06:03:39;4.65;;;1.83;;
35803;SDS011;21924;51.934;7.414;2022-07-15T06:06:23;6.60;;;1.98;;
35803;SDS011;21924;51.934;7.414;2022-07-15T06:09:07;7.60;;;1.80;;
35803;SDS011;21924;51.934;7.414;2022-07-15T06:11:52;4.78;;;1.92;;
35803;SDS011;21924;51.934;7.414;2022-07-15T06:14:37;10.65;;;1.70;;
35803;SDS011;21924;51.934;7.414;2022-07-15T06:17:22;10.00;;;2.00;;
35803;SDS011;21924;51.934;7.414;2022-07-15T06:20:07;9.32;;;1.80;;
35803;SDS011;21924;51.934;7.414;2022-07-15T06:22:52;5.10;;;1.48;;
35803;SDS011;21924;51.934;7.414;2022-07-15T06:25:36;10.80;;;2.05;;
35803;SDS011;21924;51.934;7.414;2022-07-15T06:28:20;8.50;;;1.90;;
35803;SDS011;21924;51.934;7.414;2022-07-15T06:31:05;6.78;;;1.80;;
35803;SDS011;21924;51.934;7.414;2022-07-15T06:33:49;8.02;;;1.67;;
35803;SDS011;21924;51.934;7.414;2022-07-15T06:36:34;10.60;;;2.25;;
35803;SDS011;21924;51.934;7.414;2022-07-15T06:39:28;9.77;;;1.60;;
35803;SDS011;21924;51.934;7.414;2022-07-15T06:42:13;6.25;;;1.88;;
35803;SDS011;21924;51.934;7.414;2022-07-15T06:44:57;7.63;;;2.42;;
35803;SDS011;21924;51.934;7.414;2022-07-15T06:47:42;8.43;;;2.17;;
35803;SDS011;21924;51.934;7.414;2022-07-15T06:50:26;4.82;;;1.67;;
35803;SDS011;21924;51.934;7.414;2022-07-15T06:53:11;12.18;;;1.83;;
35803;SDS011;21924;51.934;7.414;2022-07-15T06:59:01;5.15;;;1.92;;
35803;SDS011;21924;51.934;7.414;2022-07-15T07:01:46;5.00;;;1.73;;
35803;SDS011;21924;51.934;7.414;2022-07-15T07:04:31;7.65;;;2.15;;
35803;SDS011;21924;51.934;7.414;2022-07-15T07:07:15;6.13;;;1.60;;
35803;SDS011;21924;51.934;7.414;2022-07-15T07:09:59;8.75;;;2.90;;
35803;SDS011;21924;51.934;7.414;2022-07-15T07:12:44;6.43;;;1.65;;
35803;SDS011;21924;51.934;7.414;2022-07-15T07:15:28;6.55;;;1.52;;
35803;SDS011;21924;51.934;7.414;2022-07-15T07:18:13;7.43;;;2.00;;
35803;SDS011;21924;51.934;7.414;2022-07-15T07:20:57;4.80;;;1.67;;
35803;SDS011;21924;51.934;7.414;2022-07-15T07:27:30;7.75;;;1.42;;
35803;SDS011;21924;51.934;7.414;2022-07-15T07:30:15;5.55;;;1.10;;
35803;SDS011;21924;51.934;7.414;2022-07-15T07:32:59;9.02;;;1.23;;
35803;SDS011;21924;51.934;7.414;2022-07-15T07:35:43;3.75;;;1.10;;
35803;SDS011;21924;51.934;7.414;2022-07-15T07:38:28;6.57;;;1.50;;
35803;SDS011;21924;51.934;7.414;2022-07-15T07:41:12;13.23;;;1.55;;
35803;SDS011;21924;51.934;7.414;2022-07-15T07:43:57;6.70;;;1.00;;
35803;SDS011;21924;51.934;7.414;2022-07-15T07:46:41;5.50;;;1.17;;
35803;SDS011;21924;51.934;7.414;2022-07-15T07:49:26;3.45;;;1.05;;
35803;SDS011;21924;51.934;7.414;2022-07-15T07:52:10;6.07;;;1.40;;
35803;SDS011;21924;51.934;7.414;2022-07-15T07:55:02;4.85;;;1.63;;
35803;SDS011;21924;51.934;7.414;2022-07-15T07:59:19;4.57;;;1.27;;
35803;SDS011;21924;51.934;7.414;2022-07-15T08:02:05;7.80;;;1.80;;
35803;SDS011;21924;51.934;7.414;2022-07-15T08:04:50;9.60;;;1.98;;
35803;SDS011;21924;51.934;7.414;2022-07-15T08:07:35;7.95;;;1.25;;
35803;SDS011;21924;51.934;7.414;2022-07-15T08:10:20;3.30;;;0.90;;
35803;SDS011;21924;51.934;7.414;2022-07-15T08:13:05;6.65;;;1.05;;
35803;SDS011;21924;51.934;7.414;2022-07-15T08:15:50;6.25;;;2.05;;
35803;SDS011;21924;51.934;7.414;2022-07-15T08:18:35;7.28;;;1.50;;
35803;SDS011;21924;51.934;7.414;2022-07-15T08:21:20;4.72;;;1.15;;
35803;SDS011;21924;51.934;7.414;2022-07-15T08:24:04;4.78;;;1.05;;
35803;SDS011;21924;51.934;7.414;2022-07-15T08:26:49;5.45;;;1.27;;
35803;SDS011;21924;51.934;7.414;2022-07-15T08:29:34;4.32;;;1.08;;
35803;SDS011;21924;51.934;7.414;2022-07-15T08:32:18;2.72;;;1.40;;
35803;SDS011;21924;51.934;7.414;2022-07-15T08:35:03;2.40;;;0.90;;
35803;SDS011;21924;51.934;7.414;2022-07-15T08:37:48;7.15;;;1.10;;
35803;SDS011;21924;51.934;7.414;2022-07-15T08:40:33;6.82;;;1.20;;
35803;SDS011;21924;51.934;7.414;2022-07-15T08:43:18;7.85;;;1.00;;
35803;SDS011;21924;51.934;7.414;2022-07-15T08:46:03;3.83;;;1.10;;
35803;SDS011;21924;51.934;7.414;2022-07-15T08:48:50;5.00;;;0.85;;
35803;SDS011;21924;51.934;7.414;2022-07-15T08:51:36;2.53;;;0.93;;
35803;SDS011;21924;51.934;7.414;2022-07-15T08:54:27;2.47;;;0.90;;
35803;SDS011;21924;51.934;7.414;2022-07-15T08:57:13;6.63;;;1.50;;
35803;SDS011;21924;51.934;7.414;2022-07-15T08:59:58;4.45;;;0.95;;
35803;SDS011;21924;51.934;7.414;2022-07-15T09:02:43;2.67;;;1.17;;
35803;SDS011;21924;51.934;7.414;2022-07-15T09:08:14;3.03;;;1.10;;
35803;SDS011;21924;51.934;7.414;2022-07-15T09:11:00;5.22;;;1.10;;
35803;SDS011;21924;51.934;7.414;2022-07-15T09:13:45;3.33;;;1.30;;
35803;SDS011;21924;51.934;7.414;2022-07-15T09:16:30;7.75;;;1.23;;
35803;SDS011;21924;51.934;7.414;2022-07-15T09:19:14;3.38;;;1.00;;
35803;SDS011;21924;51.934;7.414;2022-07-15T09:24:51;4.43;;;1.02;;
35803;SDS011;21924;51.934;7.414;2022-07-15T09:27:49;5.25;;;1.23;;
35803;SDS011;21924;51.934;7.414;2022-07-15T09:30:38;3.58;;;0.88;;
35803;SDS011;21924;51.934;7.414;2022-07-15T09:33:47;3.33;;;0.88;;
35803;SDS011;21924;51.934;7.414;2022-07-15T09:36:34;3.80;;;0.90;;
35803;SDS011;21924;51.934;7.414;2022-07-15T09:39:25;1.50;;;0.95;;
35803;SDS011;21924;51.934;7.414;2022-07-15T09:42:10;1.92;;;0.70;;
35803;SDS011;21924;51.934;7.414;2022-07-15T09:44:55;5.20;;;0.80;;
35803;SDS011;21924;51.934;7.414;2022-07-15T09:50:51;1.17;;;0.70;;
35803;SDS011;21924;51.934;7.414;2022-07-15T09:53:42;3.70;;;1.02;;
35803;SDS011;21924;51.934;7.414;2022-07-15T09:56:28;5.38;;;0.70;;
35803;SDS011;21924;51.934;7.414;2022-07-15T09:59:22;2.83;;;0.75;;
35803;SDS011;21924;51.934;7.414;2022-07-15T10:02:06;7.22;;;1.10;;
35803;SDS011;21924;51.934;7.414;2022-07-15T10:04:51;6.63;;;0.88;;
35803;SDS011;21924;51.934;7.414;2022-07-15T10:07:36;1.77;;;0.63;;
35803;SDS011;21924;51.934;7.414;2022-07-15T10:10:24;1.98;;;0.57;;
35803;SDS011;21924;51.934;7.414;2022-07-15T10:17:32;1.40;;;0.55;;
35803;SDS011;21924;51.934;7.414;2022-07-15T10:20:02;1.83;;;1.00;;
35803;SDS011;21924;51.934;7.414;2022-07-15T10:23:18;3.17;;;1.27;;
35803;SDS011;21924;51.934;7.414;2022-07-15T10:26:55;1.25;;;0.50;;
35803;SDS011;21924;51.934;7.414;2022-07-15T10:29:26;2.58;;;0.45;;
35803;SDS011;21924;51.934;7.414;2022-07-15T10:32:13;0.88;;;0.70;;
35803;SDS011;21924;51.934;7.414;2022-07-15T10:34:58;2.47;;;0.50;;
35803;SDS011;21924;51.934;7.414;2022-07-15T10:38:17;2.88;;;0.68;;
35803;SDS011;21924;51.934;7.414;2022-07-15T10:43:54;1.95;;;0.82;;
35803;SDS011;21924;51.934;7.414;2022-07-15T10:46:38;0.98;;;0.55;;
35803;SDS011;21924;51.934;7.414;2022-07-15T10:49:29;0.70;;;0.50;;
35803;SDS011;21924;51.934;7.414;2022-07-15T10:52:18;1.02;;;0.70;;
35803;SDS011;21924;51.934;7.414;2022-07-15T10:55:04;3.70;;;0.57;;
35803;SDS011;21924;51.934;7.414;2022-07-15T10:57:50;2.28;;;1.17;;
35803;SDS011;21924;51.934;7.414;2022-07-15T11:00:37;2.28;;;1.00;;
35803;SDS011;21924;51.934;7.414;2022-07-15T11:03:21;3.15;;;0.52;;
35803;SDS011;21924;51.934;7.414;2022-07-15T11:06:06;3.10;;;0.73;;
35803;SDS011;21924;51.934;7.414;2022-07-15T11:08:50;1.08;;;0.43;;
35803;SDS011;21924;51.934;7.414;2022-07-15T11:14:45;2.17;;;0.50;;
35803;SDS011;21924;51.934;7.414;2022-07-15T11:20:17;3.40;;;0.50;;
35803;SDS011;21924;51.934;7.414;2022-07-15T11:23:03;0.75;;;0.60;;
35803;SDS011;21924;51.934;7.414;2022-07-15T11:25:49;1.98;;;0.50;;
35803;SDS011;21924;51.934;7.414;2022-07-15T11:28:35;1.48;;;0.47;;
35803;SDS011;21924;51.934;7.414;2022-07-15T11:31:21;1.38;;;0.60;;
35803;SDS011;21924;51.934;7.414;2022-07-15T11:34:06;2.03;;;0.47;;
35803;SDS011;21924;51.934;7.414;2022-07-15T11:36:58;0.95;;;0.50;;
35803;SDS011;21924;51.934;7.414;2022-07-15T11:39:42;0.43;;;0.40;;
35803;SDS011;21924;51.934;7.414;2022-07-15T11:42:30;11.02;;;1.33;;
35803;SDS011;21924;51.934;7.414;2022-07-15T11:45:35;2.40;;;0.68;;
35803;SDS011;21924;51.934;7.414;2022-07-15T11:48:21;0.40;;;0.40;;
35803;SDS011;21924;51.934;7.414;2022-07-15T11:51:06;3.70;;;0.80;;
35803;SDS011;21924;51.934;7.414;2022-07-15T11:53:53;5.00;;;0.63;;
35803;SDS011;21924;51.934;7.414;2022-07-15T11:56:38;2.60;;;0.50;;
35803;SDS011;21924;51.934;7.414;2022-07-15T11:59:22;1.13;;;0.47;;
35803;SDS011;21924;51.934;7.414;2022-07-15T12:02:08;0.93;;;0.57;;
35803;SDS011;21924;51.934;7.414;2022-07-15T12:05:01;0.73;;;0.30;;
35803;SDS011;21924;51.934;7.414;2022-07-15T12:07:47;0.65;;;0.60;;
35803;SDS011;21924;51.934;7.414;2022-07-15T12:10:35;0.93;;;0.77;;
35803;SDS011;21924;51.934;7.414;2022-07-15T12:13:21;0.73;;;0.30;;
35803;SDS011;21924;51.934;7.414;2022-07-15T12:16:06;1.48;;;0.60;;
35803;SDS011;21924;51.934;7.414;2022-07-15T12:19:14;1.08;;;0.50;;
35803;SDS011;21924;51.934;7.414;2022-07-15T12:22:10;1.98;;;0.40;;
35803;SDS011;21924;51.934;7.414;2022-07-15T12:24:54;2.70;;;1.08;;
35803;SDS011;21924;51.934;7.414;2022-07-15T12:27:39;0.60;;;0.57;;
35803;SDS011;21924;51.934;7.414;2022-07-15T12:30:31;2.05;;;0.57;;
35803;SDS011;21924;51.934;7.414;2022-07-15T12:33:21;0.50;;;0.50;;
35803;SDS011;21924;51.934;7.414;2022-07-15T12:36:17;0.40;;;0.40;;
35803;SDS011;21924;51.934;7.414;2022-07-15T12:39:04;2.70;;;0.52;;
35803;SDS011;21924;51.934;7.414;2022-07-15T12:42:06;1.55;;;0.32;;
35803;SDS011;21924;51.934;7.414;2022-07-15T12:48:04;0.43;;;0.38;;
35803;SDS011;21924;51.934;7.414;2022-07-15T12:53:36;1.73;;;0.40;;
35803;SDS011;21924;51.934;7.414;2022-07-15T12:56:22;0.75;;;0.40;;
35803;SDS011;21924;51.934;7.414;2022-07-15T12:59:06;3.45;;;0.40;;
35803;SDS011;21924;51.934;7.414;2022-07-15T13:02:03;4.03;;;0.45;;
35803;SDS011;21924;51.934;7.414;2022-07-15T13:04:48;0.80;;;0.40;;
35803;SDS011;21924;51.934;7.414;2022-07-15T13:07:33;1.05;;;0.30;;
35803;SDS011;21924;51.934;7.414;2022-07-15T13:10:18;0.88;;;0.38;;
35803;SDS011;21924;51.934;7.414;2022-07-15T13:13:02;0.20;;;0.20;;
35803;SDS011;21924;51.934;7.414;2022-07-15T13:18:33;1.58;;;0.30;;
35803;SDS011;21924;51.934;7.414;2022-07-15T13:21:19;2.58;;;0.50;;
35803;SDS011;21924;51.934;7.414;2022-07-15T13:24:03;1.77;;;0.30;;
35803;SDS011;21924;51.934;7.414;2022-07-15T13:26:48;0.30;;;0.30;;
35803;SDS011;21924;51.934;7.414;2022-07-15T13:29:32;1.77;;;0.50;;
35803;SDS011;21924;51.934;7.414;2022-07-15T13:32:16;5.68;;;0.60;;
35803;SDS011;21924;51.934;7.414;2022-07-15T13:35:01;0.40;;;0.40;;
35803;SDS011;21924;51.934;7.414;2022-07-15T13:37:46;0.43;;;0.40;;
35803;SDS011;21924;51.934;7.414;2022-07-15T13:40:30;2.75;;;0.50;;
35803;SDS011;21924;51.934;7.414;2022-07-15T13:43:15;2.15;;;0.43;;
35803;SDS011;21924;51.934;7.414;2022-07-15T13:46:00;0.60;;;0.40;;
35803;SDS011;21924;51.934;7.414;2022-07-15T13:48:44;1.80;;;0.45;;
35803;SDS011;21924;51.934;7.414;2022-07-15T13:51:28;3.20;;;0.50;;
35803;SDS011;21924;51.934;7.414;2022-07-15T13:54:13;2.40;;;0.40;;
35803;SDS011;21924;51.934;7.414;2022-07-15T13:56:57;1.50;;;0.52;;
35803;SDS011;21924;51.934;7.414;2022-07-15T13:59:42;2.35;;;0.43;;
35803;SDS011;21924;51.934;7.414;2022-07-15T14:02:26;0.70;;;0.40;;
35803;SDS011;21924;51.934;7.414;2022-07-15T14:05:11;1.73;;;0.47;;
35803;SDS011;21924;51.934;7.414;2022-07-15T14:07:59;1.23;;;0.50;;
35803;SDS011;21924;51.934;7.414;2022-07-15T14:10:43;1.77;;;0.38;;
35803;SDS011;21924;51.934;7.414;2022-07-15T14:13:27;1.45;;;0.40;;
35803;SDS011;21924;51.934;7.414;2022-07-15T14:16:12;1.52;;;0.50;;
35803;SDS011;21924;51.934;7.414;2022-07-15T14:18:56;1.98;;;0.40;;
35803;SDS011;21924;51.934;7.414;2022-07-15T14:21:41;1.08;;;0.45;;
35803;SDS011;21924;51.934;7.414;2022-07-15T14:24:25;0.60;;;0.50;;
35803;SDS011;21924;51.934;7.414;2022-07-15T14:27:10;1.65;;;0.32;;
35803;SDS011;21924;51.934;7.414;2022-07-15T14:29:54;3.13;;;0.40;;
35803;SDS011;21924;51.934;7.414;2022-07-15T14:32:39;0.98;;;0.43;;
35803;SDS011;21924;51.934;7.414;2022-07-15T14:35:24;1.27;;;0.60;;
35803;SDS011;21924;51.934;7.414;2022-07-15T14:38:08;1.48;;;0.40;;
35803;SDS011;21924;51.934;7.414;2022-07-15T14:40:52;2.13;;;0.50;;
35803;SDS011;21924;51.934;7.414;2022-07-15T14:43:36;0.95;;;0.85;;
35803;SDS011;21924;51.934;7.414;2022-07-15T14:46:21;0.88;;;0.45;;
35803;SDS011;21924;51.934;7.414;2022-07-15T14:49:05;0.30;;;0.30;;
35803;SDS011;21924;51.934;7.414;2022-07-15T14:51:50;1.70;;;0.35;;
35803;SDS011;21924;51.934;7.414;2022-07-15T14:54:34;0.47;;;0.47;;
35803;SDS011;21924;51.934;7.414;2022-07-15T14:57:18;3.53;;;0.55;;
35803;SDS011;21924;51.934;7.414;2022-07-15T15:00:03;2.63;;;0.50;;
35803;SDS011;21924;51.934;7.414;2022-07-15T15:05:33;0.40;;;0.40;;
35803;SDS011;21924;51.934;7.414;2022-07-15T15:08:18;1.70;;;0.40;;
35803;SDS011;21924;51.934;7.414;2022-07-15T15:11:02;0.68;;;0.35;;
35803;SDS011;21924;51.934;7.414;2022-07-15T15:13:48;0.65;;;0.60;;
35803;SDS011;21924;51.934;7.414;2022-07-15T15:16:32;3.95;;;1.00;;
35803;SDS011;21924;51.934;7.414;2022-07-15T15:19:17;0.60;;;0.50;;
35803;SDS011;21924;51.934;7.414;2022-07-15T15:22:01;6.20;;;0.55;;
35803;SDS011;21924;51.934;7.414;2022-07-15T15:24:46;0.73;;;0.47;;
35803;SDS011;21924;51.934;7.414;2022-07-15T15:27:31;1.58;;;0.40;;
35803;SDS011;21924;51.934;7.414;2022-07-15T15:30:15;1.20;;;0.50;;
35803;SDS011;21924;51.934;7.414;2022-07-15T15:32:59;1.55;;;0.40;;
35803;SDS011;21924;51.934;7.414;2022-07-15T15:35:44;1.60;;;0.60;;
35803;SDS011;21924;51.934;7.414;2022-07-15T15:38:29;1.88;;;0.57;;
35803;SDS011;21924;51.934;7.414;2022-07-15T15:41:13;0.73;;;0.43;;
35803;SDS011;21924;51.934;7.414;2022-07-15T15:43:57;0.50;;;0.50;;
35803;SDS011;21924;51.934;7.414;2022-07-15T15:46:42;0.52;;;0.40;;
35803;SDS011;21924;51.934;7.414;2022-07-15T15:49:27;1.13;;;0.60;;
35803;SDS011;21924;51.934;7.414;2022-07-15T15:52:12;1.65;;;0.57;;
35803;SDS011;21924;51.934;7.414;2022-07-15T15:54:59;1.23;;;0.55;;
35803;SDS011;21924;51.934;7.414;2022-07-15T15:57:43;0.40;;;0.40;;
35803;SDS011;21924;51.934;7.414;2022-07-15T16:00:28;0.45;;;0.40;;
35803;SDS011;21924;51.934;7.414;2022-07-15T16:03:13;1.95;;;0.60;;
35803;SDS011;21924;51.934;7.414;2022-07-15T16:05:58;1.88;;;0.57;;
35803;SDS011;21924;51.934;7.414;2022-07-15T16:08:42;2.55;;;0.73;;
35803;SDS011;21924;51.934;7.414;2022-07-15T16:11:26;4.10;;;0.52;;
35803;SDS011;21924;51.934;7.414;2022-07-15T16:14:11;0.68;;;0.47;;
35803;SDS011;21924;51.934;7.414;2022-07-15T16:16:55;3.40;;;0.50;;
35803;SDS011;21924;51.934;7.414;2022-07-15T16:19:40;0.82;;;0.55;;
35803;SDS011;21924;51.934;7.414;2022-07-15T16:22:25;2.33;;;0.55;;
35803;SDS011;21924;51.934;7.414;2022-07-15T16:25:32;1.15;;;0.65;;
35803;SDS011;21924;51.934;7.414;2022-07-15T16:28:19;2.28;;;0.60;;
35803;SDS011;21924;51.934;7.414;2022-07-15T16:31:04;0.90;;;0.40;;
35803;SDS011;21924;51.934;7.414;2022-07-15T16:33:48;0.63;;;0.50;;
35803;SDS011;21924;51.934;7.414;2022-07-15T16:36:33;6.85;;;0.60;;
35803;SDS011;21924;51.934;7.414;2022-07-15T16:39:17;2.15;;;0.50;;
35803;SDS011;21924;51.934;7.414;2022-07-15T16:42:02;2.17;;;0.50;;
35803;SDS011;21924;51.934;7.414;2022-07-15T16:44:46;0.90;;;0.50;;
35803;SDS011;21924;51.934;7.414;2022-07-15T16:47:31;0.95;;;0.50;;
35803;SDS011;21924;51.934;7.414;2022-07-15T16:50:16;0.63;;;0.40;;
35803;SDS011;21924;51.934;7.414;2022-07-15T16:53:06;2.08;;;0.50;;
35803;SDS011;21924;51.934;7.414;2022-07-15T16:55:50;7.50;;;0.85;;
35803;SDS011;21924;51.934;7.414;2022-07-15T16:58:35;1.77;;;0.60;;
35803;SDS011;21924;51.934;7.414;2022-07-15T17:01:20;0.73;;;0.60;;
35803;SDS011;21924;51.934;7.414;2022-07-15T17:04:04;0.80;;;0.60;;
35803;SDS011;21924;51.934;7.414;2022-07-15T17:06:48;2.30;;;0.40;;
35803;SDS011;21924;51.934;7.414;2022-07-15T17:09:33;0.82;;;0.50;;
35803;SDS011;21924;51.934;7.414;2022-07-15T17:15:03;7.88;;;1.65;;
35803;SDS011;21924;51.934;7.414;2022-07-15T17:17:48;0.68;;;0.30;;
35803;SDS011;21924;51.934;7.414;2022-07-15T17:20:33;1.83;;;0.47;;
35803;SDS011;21924;51.934;7.414;2022-07-15T17:23:18;0.95;;;0.50;;